Cupsaw Lake, New Jersey
Current Conditions -  °F | °C
As of 4:17 PM on Wednesday 26 Nov 2014 (Local Time) from KCDW Reporting Station
Light Snow Light Snow  
Wind Chill: 27°   Ceiling: 1400
Heat Index: 33°   Visibility: 3mi
Dew Point: 30°   Wind: 7mph
Humidity: 89%   Direction: 40°NE
Pressure: 29.82"   Gusts: NA
Location:  41.1036°N, 74.2801°W
Report Text: KCDW 262117Z 04006KT 3SM -SN BR FEW009 BKN014 OVC020 01/M01 A2982 RMK AO2 PRESFR P0002 T00061011
Loading
Personal Weather Stations






























Interactive Weather Map New forecast layout! Learn more

10-Day Weather Forecast

Advertisements
Track Severe Weather on mobile